79J

South Alabama Regional at Bill Benton Field Airport

Andalusia, Alabama, USA
METAR K79J 251656Z AUTO 31011KT 10SM BKN034 23/12 A2999 RMK AO2 SLP151 T02330122
Observed Flight Rules
Apr-25 @ 16:56 UTC (an hour ago) Visual Flight Rules
Wind Visibility Clouds
310° at 11 knots 10 miles
  • Broken at 3,400' AGL
Temperatures Readings
Current 23°C / 73°F
Dewpoint 12°C / 54°F
Humidity 50%
Altimeter 29.99" Hg
Pressure 1015.1 hPa
Elevation 94
METAR K79J 251656Z AUTO 31011KT 10SM BKN034 23/12 A2999 RMK AO2 SLP151 T02330122
Observed Flight Rules
Apr-25 @ 16:56 UTC
(an hour ago)
VFR
Wind Visibility
310° at 11 knots 10 miles
Clouds
  • Broken at 3,400' AGL
Temperature Dewpoint
23°C / 73°F 12°C / 54°F
Humidity Altimeter Pressure
50% 29.99" Hg 1015.1 hPa